AirNav   Air Wisconsin pilot careers
 
 966 users online  

1D2 Canton-Plymouth-Mettetal Airport
Plymouth, Michigan, USA

GOING TO PLYMOUTH?


FAA INFORMATION EFFECTIVE 04 JANUARY 2018

Location

FAA Identifier: 1D2
Lat/Long: 42-20-52.1000N / 083-27-22.8000W
42-20.868333N / 083-27.380000W
42.3478056 / -83.4563333
(estimated)
Elevation: 696.1 ft. / 212.2 m (surveyed)
Variation: 05W (1980)
From city: 2 miles S of PLYMOUTH, MI
Time zone: UTC -5 (UTC -4 during Daylight Saving Time)
Zip code: 48187

Airport Operations

Airport use: Open to the public
Activation date: 03/1942
Control tower: no
ARTCC: CLEVELAND CENTER
FSS: LANSING FLIGHT SERVICE STATION
NOTAMs facility: LAN (NOTAM-D service available)
Attendance: 0700-1600
Pattern altitude: 1696.1 ft. MSL
Wind indicator: lighted
Segmented circle: yes
Lights: ACTVT MIRL RY 18/36, PAPI RYS 18 & 36 - CTAF
Beacon: white-green (lighted land airport)
Operates sunset to sunrise.

Airport Communications

CTAF/UNICOM: 122.7
DETROIT APPROACH: 118.95
DETROIT DEPARTURE: 118.95
WX ASOS at YIP (7 nm SW): 132.35 (734-485-9056)
WX ASOS at DTW (9 nm SE): 133.675 (734-955-5015)
WX ASOS at ARB (15 nm SW): PHONE 734-668-7173
WX AWOS-3 at VLL (17 nm NE): 119.475 (248-288-4649)
WX ASOS at PTK (19 nm N): 125.025 (248-886-8551)
WX AWOS-3 at ONZ (20 nm SE): 119.675 (734-692-9686)

Nearby radio navigation aids

VOR radial/distance  VOR name  Freq  Var
SVMr124/7.1SALEM VORTAC114.3003W
DXOr340/9.0DETROIT VOR/DME113.4006W
CRLr003/18.0CARLETON VOR/DME115.7003W
PSIr174/21.5PONTIAC VORTAC111.0003W
YQGr288/28.5WINDSOR VOR/DME113.8006W
FNTr167/39.3FLINT VORTAC116.9006W

 
NDB name  Hdg/Dist  Freq  Var  ID
GROSSE ILE325/20.041907WRYS .-. -.-- ...
TECUMSEH051/26.823906WTCU - -.-. ..-
ADRIAN050/39.827806WADG .- -.. --.

Airport Services

Fuel available: 100LL
24 HR SELF SERVE
Parking: hangars and tiedowns
Airframe service: NONE
Powerplant service: NONE
Bottled oxygen: NONE
Bulk oxygen: NONE

Runway Information

Runway 18/36

Dimensions: 2302 x 75 ft. / 702 x 23 m
Surface: asphalt/grooved, in fair condition
Weight bearing capacity: 
Single wheel: 12.5
Runway edge lights: medium intensity
RUNWAY 18  RUNWAY 36
Latitude: 42-21.057013N42-20.678285N
Longitude: 083-27.389617W083-27.369427W
Elevation: 696.0 ft.685.4 ft.
Gradient: 0.5% UP
Traffic pattern: leftleft
Runway heading: 182 magnetic, 177 true002 magnetic, 357 true
Markings: basic, in good conditionbasic, in good condition
Visual slope indicator: 2-light PAPI on left (4.00 degrees glide path)4-light PAPI on right (3.00 degrees glide path)
Runway end identifier lights: no
Touchdown point: yes, no lightsyes, no lights
Obstructions: 15 ft. road, 312 ft. from runway, 7:1 slope to clear
APCH RATIO 20:1 FM THRSLD.
71 ft. trees, 1772 ft. from runway, 22:1 slope to clear

Airport Ownership and Management from official FAA records

Ownership: Publicly-owned
Owner: STATE OF MICHIGAN - MDOT
2700 EAST AIRPORT SERVICE DR
LANSING, MI 48906
Phone 517-335-8521
Manager: JIM MORENCY
8550 NORTH LILLEY RD
CANTON, MI 48187
Phone 734-459-0012

Airport Operational Statistics

Aircraft based on the field: 84
Single engine airplanes: 76
Multi engine airplanes: 3
Helicopters: 4
Ultralights: 1
    
Aircraft operations: avg 88/day *
69% local general aviation
31% transient general aviation
* for 12-month period ending 31 December 2013

Additional Remarks

NOISE SENSITIVE AREAS NORTH & SOUTH OF ARPT. CTC AMGR 734-459-0012 FOR NOISE ABATEMENT PROCEDURES.
DEER AND BIRDS ON & INVOF ARPT.
FOR CD CTC DETROIT APCH AT 800-499-8181.

Instrument Procedures

NOTE: All procedures below are presented as PDF files. If you need a reader for these files, you should download the free Adobe Reader.

NOT FOR NAVIGATION. Please procure official charts for flight.
FAA instrument procedures published for use between 4 January 2018 at 0901Z and 1 February 2018 at 0900Z.

 
STARs - Standard Terminal Arrivals
CRUXX SIX   download (250KB)
GOHMA THREE   download (174KB)
LLEEO TWO   download (321KB)
SPRTN THREE   download (158KB)
 
IAPs - Instrument Approach Procedures
RNAV (GPS)-B   download (164KB)
VOR-A   download (145KB)
NOTE: Special Take-Off Minimums/Departure Procedures apply   download (122KB)

Other nearby airports with instrument procedures:

KYIP - Willow Run Airport (7 nm SW)
KDTW - Detroit Metropolitan Wayne County Airport (9 nm SE)
Y47 - Oakland Southwest Airport (12 nm NW)
KARB - Ann Arbor Municipal Airport (15 nm SW)
KVLL - Oakland/Troy Airport (17 nm NE)
KPTK - Oakland County International Airport (19 nm N)
KONZ - Grosse Ile Municipal Airport (20 nm SE)
 
Loc | Ops | Rwys | IFR | FBO | Links
Com | Nav | Svcs | Stats | Notes


 
Area around 1D2 (Canton-Plymouth-Mettetal Airport)
 
Road maps at: MapQuest Bing Google
 
Aerial photo
WARNING: Photo may not be current or correct
Aerial photo of 1D2 (Canton-Plymouth-Mettetal Airport)
Photo by Mike Mee
Taken in the Summer of 2017
looking south.

Do you have a better or more recent aerial photo of Canton-Plymouth-Mettetal Airport that you would like to share? If so, please send us your photo.

 
Sectional chart

 
Airport distance calculator
Flying to Canton-Plymouth-Mettetal Airport? Find the distance to fly.

From to 1D2

Sunrise and sunset
Times for 22-Jan-2018
 Local
(UTC-5)
 Zulu
(UTC)
Morning civil twilight07:2712:27
Sunrise07:5712:57
Sunset17:3422:34
Evening civil twilight18:0423:04

Current date and time
Zulu (UTC)  23-Jan-2018 00:11:51
Local (UTC-5)  22-Jan-2018 19:11:51
 
METAR
KYIP 
8nm SW 
222353Z 17011KT 10SM OVC023 11/08 A2961 RMK AO2 SLP028 60002 T01060083 10133 20100 56006
KDTW 
9nm SE 
222353Z 17010KT 10SM OVC029 10/08 A2962 RMK AO2 SLP034 60003 T01000078 10128 20094 56009
KARB 
15nm SW 
734-668-7173
222353Z AUTO 16007KT 4SM BR OVC017 10/09 A2961 RMK AO2 SLP029 60008 T01000089 10111 20100 56005
KVLL 
17nm NE 
222355Z AUTO 18011G16KT 10SM OVC025 11/08 A2963 RMK AO2 T01070082 10110 20095
KPTK 
19nm N 
222353Z 15007KT 2 1/2SM -DZ BR FEW005 OVC014 09/08 A2960 RMK AO2 RAE22DZB42 SLP028 P0000 60007 T00890083 10111 20083 56001
KDET 
20nm E 
222353Z 19009KT 10SM OVC031 11/07 A2963 RMK AO2 RAB15E24 SLP036 P0000 60003 T01060072 10117 20094 56011
TAF
KYIP 
8nm SW 
221921Z 2219/2318 18012G24KT P6SM -SHRA BKN060 OVC100 FM222200 18010G18KT 5SM -SHRA BR BKN015 BKN040 FM230600 20008KT P6SM BKN080 FM231300 23012KT 5SM -SHRA BR OVC030
KDTW 
9nm SE 
222054Z 2221/2324 18012KT P6SM -SHRA BKN035 OVC080 FM222300 18010KT 6SM -SHRA BR BKN015 BKN040 FM230600 20008KT P6SM BKN080 FM231300 23012KT 5SM -SHRA BR OVC030 FM231800 27018G25KT P6SM -SNRA OVC040
KPTK 
19nm N 
221922Z 2219/2318 18010G20KT P6SM -SHRA SCT025 BKN050 OVC080 FM222200 18010G20KT 5SM -SHRA BR BKN015 OVC040 FM230800 21008KT P6SM SCT020 BKN080 FM231300 23012KT 5SM -SHRA BR OVC025
KDET 
20nm E 
221920Z 2219/2318 18012G20KT P6SM -SHRA BKN060 OVC100 FM222200 18010G18KT 5SM -SHRA BR BKN015 BKN040 FM230600 20008KT P6SM BKN080 FM231300 23012KT 5SM -SHRA BR OVC030
NOTAMs
Click for the latest NOTAMs
NOTAMs are issued by the DoD/FAA and will open in a separate window not controlled by AirNav.

 

 
 

FBO, Fuel Providers, and Aircraft Ground Support

  
 Business Name 
 
 Contact 
 
 Services / Description 
 
Fuel Prices
 
Comments
  
MDOT - Office of Aeronautics 734-459-0012
no information available

If you are affiliated with MDOT - Office of Aeronautics and would like to show here your services, contact info, web link, logo, and more, click here
100LL
PS $4.40 
 Updated 09-Jan-2018
 
   3 read write
PS=Pump service
Update Fuel Prices
 

Would you like to see your business listed on this page?

 If your business provides an interesting product or service to pilots, flight crews, aircraft, or users of the Canton-Plymouth-Mettetal Airport, you should consider listing it here.  To start the listing process, click on the button below
 
Add a business
 

Other Pages about Canton-Plymouth-Mettetal Airport

Page from the Michigan Airport Directory (PDF)
 
Update a link
 
Copyright © AirNav, LLC. All rights reserved. Privacy Policy  Contact